createdAt,value
2018-05-29T00:02:20.612Z,99511
2018-05-29T00:04:48.657Z,99512
2018-05-29T00:07:16.716Z,99510
2018-05-29T00:09:45.538Z,99512
2018-05-29T00:12:14.360Z,99512
2018-05-29T00:14:42.404Z,99512
2018-05-29T00:17:11.218Z,99515
2018-05-29T00:19:40.026Z,99520
2018-05-29T00:22:08.848Z,99522
2018-05-29T00:24:36.929Z,99524
2018-05-29T00:27:05.013Z,99520
2018-05-29T00:29:33.091Z,99516
2018-05-29T00:32:01.148Z,99514
2018-05-29T00:34:29.190Z,99513
2018-05-29T00:36:57.231Z,99509
2018-05-29T00:39:26.154Z,99502
2018-05-29T00:41:54.187Z,99501
2018-05-29T00:44:22.247Z,99499
2018-05-29T00:46:50.310Z,99499
2018-05-29T00:49:18.372Z,99497
2018-05-29T00:51:47.182Z,99494
2018-05-29T00:54:15.999Z,99494
2018-05-29T00:56:44.036Z,99491
2018-05-29T00:59:12.091Z,99492
2018-05-29T01:01:40.158Z,99481
2018-05-29T01:04:08.211Z,99481
2018-05-29T01:06:37.048Z,99495
2018-05-29T01:09:05.996Z,99502
2018-05-29T01:11:34.039Z,99510
2018-05-29T01:14:02.088Z,99508
2018-05-29T01:16:30.891Z,99509
2018-05-29T01:18:59.703Z,99511
2018-05-29T01:21:27.744Z,99501
2018-05-29T01:23:55.795Z,99513
2018-05-29T01:26:23.867Z,99512
2018-05-29T01:28:51.952Z,99507
2018-05-29T01:31:19.991Z,99506
2018-05-29T01:33:48.035Z,99501
2018-05-29T01:36:16.082Z,99498
2018-05-29T01:38:44.914Z,99504
2018-05-29T01:41:12.958Z,99496
2018-05-29T01:43:41.015Z,99506
2018-05-29T01:46:09.088Z,99509
2018-05-29T01:48:37.135Z,99510
2018-05-29T01:51:05.183Z,99512
2018-05-29T01:53:33.999Z,99512
2018-05-29T01:56:02.824Z,99521
2018-05-29T01:58:30.867Z,99529
2018-05-29T02:00:58.915Z,99526
2018-05-29T02:03:26.952Z,99528
2018-05-29T02:05:55.008Z,99531
2018-05-29T02:08:23.053Z,99529
2018-05-29T02:10:51.139Z,99531
2018-05-29T02:13:19.182Z,99520
2018-05-29T02:15:47.231Z,99524
2018-05-29T02:18:15.272Z,99524
2018-05-29T02:20:44.083Z,99521
2018-05-29T02:23:12.231Z,99520
2018-05-29T02:25:40.288Z,99524
2018-05-29T02:28:08.326Z,99533
2018-05-29T02:30:37.144Z,99535
2018-05-29T02:33:05.192Z,99539
2018-05-29T02:35:33.239Z,99540
2018-05-29T02:38:01.287Z,99551
2018-05-29T02:40:30.099Z,99558
2018-05-29T02:42:58.143Z,99556
2018-05-29T02:45:27.008Z,99551
2018-05-29T02:47:55.043Z,99549
2018-05-29T02:50:23.120Z,99553
2018-05-29T02:52:51.160Z,99554
2018-05-29T02:55:19.229Z,99555
2018-05-29T02:57:47.271Z,99555
2018-05-29T03:00:15.319Z,99566
2018-05-29T03:02:43.364Z,99569
2018-05-29T03:05:12.191Z,99561
2018-05-29T03:07:40.231Z,99569
2018-05-29T03:10:08.292Z,99565
2018-05-29T03:12:36.348Z,99575
2018-05-29T03:15:04.401Z,99576
2018-05-29T03:17:33.207Z,99580
2018-05-29T03:20:02.027Z,99575
2018-05-29T03:22:30.067Z,99576
2018-05-29T03:24:58.119Z,99585
2018-05-29T03:27:26.167Z,99588
2018-05-29T03:29:54.272Z,99591
2018-05-29T03:32:22.320Z,99583
2018-05-29T03:34:50.374Z,99588
2018-05-29T03:37:18.420Z,99597
2018-05-29T03:39:46.461Z,99599
2018-05-29T03:42:14.518Z,99605
2018-05-29T03:44:42.563Z,99599
2018-05-29T03:47:10.611Z,99599
2018-05-29T03:49:38.654Z,99603
2018-05-29T03:52:06.741Z,99602
2018-05-29T03:54:34.790Z,99600
2018-05-29T03:57:03.710Z,99600
2018-05-29T03:59:31.759Z,99601
2018-05-29T04:02:00.604Z,99593
2018-05-29T04:04:28.689Z,99594
2018-05-29T04:06:56.755Z,99587
2018-05-29T04:09:25.577Z,99587
2018-05-29T04:11:53.633Z,99596
2018-05-29T04:14:21.679Z,99602
2018-05-29T04:16:49.731Z,99596
2018-05-29T04:19:17.787Z,99584
2018-05-29T04:21:46.602Z,99593
2018-05-29T04:24:14.655Z,99594
2018-05-29T04:26:42.793Z,99597
2018-05-29T04:29:10.842Z,99595
2018-05-29T04:31:39.755Z,99600
2018-05-29T04:34:08.583Z,99595
2018-05-29T04:36:36.667Z,99608
2018-05-29T04:39:05.565Z,99606
2018-05-29T04:41:33.651Z,99613
2018-05-29T04:44:01.694Z,99618
2018-05-29T04:46:29.746Z,99610
2018-05-29T04:48:57.790Z,99611
2018-05-29T04:51:25.855Z,99614
2018-05-29T04:53:53.898Z,99619
2018-05-29T04:56:21.956Z,99620
2018-05-29T04:58:50.002Z,99622
2018-05-29T05:01:18.059Z,99616
2018-05-29T05:03:46.102Z,99618
2018-05-29T05:06:14.171Z,99620
2018-05-29T05:08:42.999Z,99618
2018-05-29T05:11:11.039Z,99615
2018-05-29T05:13:39.097Z,99606
2018-05-29T05:16:07.142Z,99607
2018-05-29T05:18:35.198Z,99606
2018-05-29T05:21:03.243Z,99606
2018-05-29T05:23:31.306Z,99604
2018-05-29T05:25:59.344Z,99594
2018-05-29T05:28:27.395Z,99588
2018-05-29T05:30:55.443Z,99589
2018-05-29T05:33:23.500Z,99586
2018-05-29T05:35:51.547Z,99577
2018-05-29T05:38:19.605Z,99579
2018-05-29T05:40:47.651Z,99586
2018-05-29T05:43:15.707Z,99585
2018-05-29T05:45:43.763Z,99580
2018-05-29T05:48:11.819Z,99577
2018-05-29T05:50:39.867Z,99579
2018-05-29T05:53:07.925Z,99574
2018-05-29T05:55:36.003Z,99572
2018-05-29T05:58:04.056Z,99565
2018-05-29T06:00:32.896Z,99564
2018-05-29T06:03:00.947Z,99565
2018-05-29T06:05:29.772Z,99563
2018-05-29T06:07:57.832Z,99563
2018-05-29T06:10:26.643Z,99567
2018-05-29T06:12:55.462Z,99576
2018-05-29T06:15:23.515Z,99579
2018-05-29T06:17:52.343Z,99586
2018-05-29T06:20:21.167Z,99587
2018-05-29T06:22:49.218Z,99594
2018-05-29T06:25:18.040Z,99591
2018-05-29T06:27:46.091Z,99590
2018-05-29T06:30:14.903Z,99600
2018-05-29T06:32:43.734Z,99597
2018-05-29T06:35:11.783Z,99590
2018-05-29T06:37:39.908Z,99588
2018-05-29T06:40:07.963Z,99587
2018-05-29T06:42:36.883Z,99603
2018-05-29T06:45:04.973Z,99605
2018-05-29T06:47:32.991Z,99610
2018-05-29T06:50:01.051Z,99608
2018-05-29T06:52:29.156Z,99599
2018-05-29T06:54:57.313Z,99599
2018-05-29T06:57:25.366Z,99599
2018-05-29T06:59:54.187Z,99589
2018-05-29T07:02:22.285Z,99587
2018-05-29T07:04:50.348Z,99581
2018-05-29T07:07:19.162Z,99583
2018-05-29T07:09:47.211Z,99583
2018-05-29T07:12:15.265Z,99591
2018-05-29T07:14:43.324Z,99591
2018-05-29T07:17:11.368Z,99586
2018-05-29T07:19:39.423Z,99578
2018-05-29T07:22:07.479Z,99571
2018-05-29T07:24:35.537Z,99566
2018-05-29T07:27:04.347Z,99563
2018-05-29T07:29:32.413Z,99566
2018-05-29T07:32:00.463Z,99569
2018-05-29T07:34:28.517Z,99567
2018-05-29T07:36:56.572Z,99561
2018-05-29T07:39:25.403Z,99557
2018-05-29T07:41:53.452Z,99563
2018-05-29T07:44:21.513Z,99565
2018-05-29T07:46:49.567Z,99559
2018-05-29T07:49:17.647Z,99561
2018-05-29T07:51:45.698Z,99563
2018-05-29T07:54:14.524Z,99570
2018-05-29T07:56:42.619Z,99565
2018-05-29T07:59:10.700Z,99563
2018-05-29T08:01:38.747Z,99566
2018-05-29T08:04:06.804Z,99568
2018-05-29T08:06:34.852Z,99564
2018-05-29T08:09:02.931Z,99568
2018-05-29T08:11:31.727Z,99564
2018-05-29T08:14:00.031Z,99563
2018-05-29T08:16:28.086Z,99573
2018-05-29T08:18:56.935Z,99564
2018-05-29T08:21:24.991Z,99561
2018-05-29T08:23:53.039Z,99560
2018-05-29T08:26:21.097Z,99566
2018-05-29T08:28:49.147Z,99563
2018-05-29T08:31:17.259Z,99563
2018-05-29T08:33:45.307Z,99553
2018-05-29T08:36:14.133Z,99555
2018-05-29T08:38:42.179Z,99561
2018-05-29T08:41:10.235Z,99557
2018-05-29T08:43:38.287Z,99557
2018-05-29T08:46:06.412Z,99551
2018-05-29T08:48:35.160Z,99548
2018-05-29T08:51:03.217Z,99548
2018-05-29T08:53:31.265Z,99552
2018-05-29T08:55:59.310Z,99553
2018-05-29T08:58:27.371Z,99552
2018-05-29T09:00:56.204Z,99556
2018-05-29T09:03:24.251Z,99552
2018-05-29T09:05:52.311Z,99551
2018-05-29T09:08:20.360Z,99545
2018-05-29T09:10:48.419Z,99547
2018-05-29T09:13:17.235Z,99541
2018-05-29T09:15:45.299Z,99547
2018-05-29T09:18:13.352Z,99547
2018-05-29T09:20:41.418Z,99547
2018-05-29T09:23:09.491Z,99545
2018-05-29T09:25:37.548Z,99543
2018-05-29T09:28:06.363Z,99548
2018-05-29T09:30:34.419Z,99552
2018-05-29T09:33:02.544Z,99548
2018-05-29T09:35:30.606Z,99555
2018-05-29T09:37:59.419Z,99556
2018-05-29T09:40:27.475Z,99557
2018-05-29T09:42:55.521Z,99555
2018-05-29T09:45:23.573Z,99556
2018-05-29T09:47:51.673Z,99547
2018-05-29T09:50:19.679Z,99553
2018-05-29T09:52:47.788Z,99546
2018-05-29T09:55:15.779Z,99548
2018-05-29T09:57:43.835Z,99557
2018-05-29T10:00:11.883Z,99560
2018-05-29T10:02:39.942Z,99553
2018-05-29T10:05:08.756Z,99548
2018-05-29T10:07:37.576Z,99549
2018-05-29T10:10:05.627Z,99541
2018-05-29T10:12:33.695Z,99549
2018-05-29T10:15:01.836Z,99543
2018-05-29T10:17:29.921Z,99536
2018-05-29T10:19:57.971Z,99539
2018-05-29T10:22:26.804Z,99538
2018-05-29T10:24:54.901Z,99543
2018-05-29T10:27:22.946Z,99537
2018-05-29T10:29:51.764Z,99533
2018-05-29T10:32:20.589Z,99534
2018-05-29T10:34:48.634Z,99525
2018-05-29T10:37:16.687Z,99528
2018-05-29T10:39:44.838Z,99537
2018-05-29T10:42:12.922Z,99538
2018-05-29T10:44:40.977Z,99543
2018-05-29T10:47:09.791Z,99538
2018-05-29T10:49:38.610Z,99528
2018-05-29T10:52:06.663Z,99538
2018-05-29T10:54:35.479Z,99544
2018-05-29T10:57:04.299Z,99540
2018-05-29T10:59:32.361Z,99555
2018-05-29T11:02:01.188Z,99544
2018-05-29T11:04:29.239Z,99547
2018-05-29T11:06:58.079Z,99549
2018-05-29T11:09:26.130Z,99547
2018-05-29T11:11:54.951Z,99542
2018-05-29T11:14:22.995Z,99553
2018-05-29T11:16:51.049Z,99546
2018-05-29T11:19:19.105Z,99547
2018-05-29T11:21:47.155Z,99555
2018-05-29T11:24:15.291Z,99553
2018-05-29T11:26:43.343Z,99547
2018-05-29T11:29:12.164Z,99551
2018-05-29T11:31:40.214Z,99552
2018-05-29T11:34:08.271Z,99552
2018-05-29T11:36:36.331Z,99555
2018-05-29T11:39:04.398Z,99552
2018-05-29T11:41:33.320Z,99559
2018-05-29T11:44:01.377Z,99548
2018-05-29T11:46:30.201Z,99553
2018-05-29T11:48:58.255Z,99551
2018-05-29T11:51:27.071Z,99550
2018-05-29T11:53:55.927Z,99551
2018-05-29T11:56:23.976Z,99547
2018-05-29T11:58:52.067Z,99548
2018-05-29T12:01:20.120Z,99547
2018-05-29T12:03:48.939Z,99541
2018-05-29T12:06:16.992Z,99548
2018-05-29T12:08:45.043Z,99545
2018-05-29T12:11:13.091Z,99545
2018-05-29T12:13:41.159Z,99538
2018-05-29T12:16:09.975Z,99548
2018-05-29T12:18:38.805Z,99555
2018-05-29T12:21:06.871Z,99547
2018-05-29T12:23:34.927Z,99549
2018-05-29T12:26:03.741Z,99551
2018-05-29T12:28:32.575Z,99544
2018-05-29T12:31:00.655Z,99546
2018-05-29T12:33:28.711Z,99548
2018-05-29T12:35:57.519Z,99557
2018-05-29T12:38:26.335Z,99558
2018-05-29T12:40:54.382Z,99550
2018-05-29T12:43:22.432Z,99546
2018-05-29T12:45:50.471Z,99547
2018-05-29T12:48:19.283Z,99550
2018-05-29T12:50:47.331Z,99543
2018-05-29T12:53:15.395Z,99546
2018-05-29T12:55:43.450Z,99538
2018-05-29T12:58:11.499Z,99539
2018-05-29T13:00:40.340Z,99538
2018-05-29T13:03:08.397Z,99537
2018-05-29T13:05:37.203Z,99536
2018-05-29T13:08:06.028Z,99537
2018-05-29T13:10:34.075Z,99526
2018-05-29T13:13:02.891Z,99537
2018-05-29T13:15:31.707Z,99536
2018-05-29T13:17:59.751Z,99549
2018-05-29T13:20:27.812Z,99528
2018-05-29T13:22:55.864Z,99533
2018-05-29T13:25:23.988Z,99534
2018-05-29T13:27:52.065Z,99546
2018-05-29T13:30:20.091Z,99535
2018-05-29T13:32:48.906Z,99538
2018-05-29T13:35:17.766Z,99538
2018-05-29T13:37:45.762Z,99536
2018-05-29T13:40:13.819Z,99539
2018-05-29T13:42:41.859Z,99533
2018-05-29T13:45:10.679Z,99536
2018-05-29T13:47:38.726Z,99528
2018-05-29T13:50:06.852Z,99528
2018-05-29T13:52:34.900Z,99520
2018-05-29T13:55:03.030Z,99520
2018-05-29T13:57:31.111Z,99515
2018-05-29T13:59:59.162Z,99516
2018-05-29T14:02:27.970Z,99524
2018-05-29T14:04:56.795Z,99520
2018-05-29T14:07:24.835Z,99518
2018-05-29T14:09:52.888Z,99518
2018-05-29T14:12:20.922Z,99523
2018-05-29T14:14:49.761Z,99528
2018-05-29T14:17:17.783Z,99527
2018-05-29T14:19:45.847Z,99531
2018-05-29T14:22:13.886Z,99536
2018-05-29T14:24:42.708Z,99528
2018-05-29T14:27:10.755Z,99518
2018-05-29T14:29:38.834Z,99519
2018-05-29T14:32:06.881Z,99513
2018-05-29T14:34:34.933Z,99505
2018-05-29T14:37:02.975Z,99500
2018-05-29T14:39:31.023Z,99493
2018-05-29T14:41:59.077Z,99493
2018-05-29T14:44:27.899Z,99485
2018-05-29T14:46:55.945Z,99486
2018-05-29T14:49:24.155Z,99489
2018-05-29T14:51:52.962Z,99484
2018-05-29T14:54:21.016Z,99485
2018-05-29T14:56:49.070Z,99488
2018-05-29T14:59:17.152Z,99486
2018-05-29T15:01:45.159Z,99486
2018-05-29T15:04:13.211Z,99498
2018-05-29T15:06:41.263Z,99500
2018-05-29T15:09:10.122Z,99498
2018-05-29T15:11:38.123Z,99499
2018-05-29T15:14:06.180Z,99491
2018-05-29T15:16:34.232Z,99482
2018-05-29T15:19:02.282Z,99481
2018-05-29T15:21:31.843Z,99477
2018-05-29T15:23:59.888Z,99466
2018-05-29T15:26:27.938Z,99465
2018-05-29T15:28:55.988Z,99460
2018-05-29T15:31:24.117Z,99461
2018-05-29T15:33:52.164Z,99466
2018-05-29T15:36:20.216Z,99466
2018-05-29T15:38:49.034Z,99462
2018-05-29T15:41:17.852Z,99463
2018-05-29T15:43:45.898Z,99463
2018-05-29T15:46:14.027Z,99461
2018-05-29T15:48:42.115Z,99464
2018-05-29T15:51:10.396Z,99459
2018-05-29T15:53:38.443Z,99462
2018-05-29T15:56:07.283Z,99459
2018-05-29T15:58:35.335Z,99454
2018-05-29T16:01:04.163Z,99459
2018-05-29T16:03:32.211Z,99462
2018-05-29T16:06:00.266Z,99456
2018-05-29T16:08:28.307Z,99455
2018-05-29T16:10:57.128Z,99457
2018-05-29T16:13:25.166Z,99449
2018-05-29T16:15:53.219Z,99455
2018-05-29T16:18:21.267Z,99454
2018-05-29T16:20:49.319Z,99450
2018-05-29T16:23:17.452Z,99445
2018-05-29T16:25:45.504Z,99447
2018-05-29T16:28:13.543Z,99441
2018-05-29T16:30:41.588Z,99440
2018-05-29T16:33:10.397Z,99436
2018-05-29T16:35:38.444Z,99432
2018-05-29T16:38:06.486Z,99439
2018-05-29T16:40:34.647Z,99440
2018-05-29T16:43:02.645Z,99440
2018-05-29T16:45:31.446Z,99446
2018-05-29T16:47:59.539Z,99451
2018-05-29T16:50:27.587Z,99451
2018-05-29T16:52:56.407Z,99455
2018-05-29T16:55:24.471Z,99457
2018-05-29T16:57:53.291Z,99453
2018-05-29T17:00:22.111Z,99463
2018-05-29T17:02:50.147Z,99465
2018-05-29T17:05:18.208Z,99472
2018-05-29T17:07:46.247Z,99469
2018-05-29T17:10:15.064Z,99463
2018-05-29T17:12:43.111Z,99463
2018-05-29T17:15:11.299Z,99470
2018-05-29T17:17:39.303Z,99484
2018-05-29T17:20:07.347Z,99485
2018-05-29T17:22:35.399Z,99497
2018-05-29T17:25:03.475Z,99498
2018-05-29T17:27:31.529Z,99502
2018-05-29T17:30:00.367Z,99507
2018-05-29T17:32:28.446Z,99510
2018-05-29T17:34:56.507Z,99506
2018-05-29T17:37:25.322Z,99505
2018-05-29T17:39:53.551Z,99504
2018-05-29T17:42:21.704Z,99500
2018-05-29T17:44:49.747Z,99496
2018-05-29T17:47:17.804Z,99505
2018-05-29T17:49:45.855Z,99502
2018-05-29T17:52:13.894Z,99505
2018-05-29T17:54:41.939Z,99505
2018-05-29T17:57:10.097Z,99510
2018-05-29T17:59:38.924Z,99508
2018-05-29T18:02:06.976Z,99504
2018-05-29T18:04:35.783Z,99511
2018-05-29T18:07:04.607Z,99507
2018-05-29T18:09:32.655Z,99513
2018-05-29T18:12:00.775Z,99515
2018-05-29T18:14:28.823Z,99517
2018-05-29T18:16:56.892Z,99519
2018-05-29T18:19:25.032Z,99523
2018-05-29T18:21:53.087Z,99520
2018-05-29T18:24:21.895Z,99522
2018-05-29T18:26:50.749Z,99521
2018-05-29T18:29:18.759Z,99520
2018-05-29T18:31:46.866Z,99518
2018-05-29T18:34:15.675Z,99521
2018-05-29T18:36:44.503Z,99522
2018-05-29T18:39:12.555Z,99521
2018-05-29T18:41:41.388Z,99518
2018-05-29T18:44:09.468Z,99521
2018-05-29T18:46:38.339Z,99524
2018-05-29T18:49:07.191Z,99520
2018-05-29T18:51:35.970Z,99523
2018-05-29T18:54:04.030Z,99524
2018-05-29T18:56:32.085Z,99527
2018-05-29T18:59:00.127Z,99530
2018-05-29T19:01:28.251Z,99529
2018-05-29T19:03:56.406Z,99533
2018-05-29T19:06:24.495Z,99536
2018-05-29T19:08:52.531Z,99548
2018-05-29T19:11:20.573Z,99549
2018-05-29T19:13:48.629Z,99555
2018-05-29T19:16:17.451Z,99559
2018-05-29T19:18:45.503Z,99561
2018-05-29T19:21:14.320Z,99560
2018-05-29T19:23:43.139Z,99566
2018-05-29T19:26:11.186Z,99565
2018-05-29T19:28:40.013Z,99566
2018-05-29T19:31:08.082Z,99564
2018-05-29T19:33:37.010Z,99567
2018-05-29T19:36:05.050Z,99567
2018-05-29T19:38:33.104Z,99562
2018-05-29T19:41:01.167Z,99566
2018-05-29T19:43:29.363Z,99571
2018-05-29T19:45:57.432Z,99571
2018-05-29T19:48:26.448Z,99575
2018-05-29T19:50:54.533Z,99573
2018-05-29T19:53:23.314Z,99575
2018-05-29T19:55:52.135Z,99570
2018-05-29T19:58:20.214Z,99575
2018-05-29T20:00:48.263Z,99579
2018-05-29T20:03:16.310Z,99579
2018-05-29T20:05:44.373Z,99582
2018-05-29T20:08:12.435Z,99582
2018-05-29T20:10:41.251Z,99583
2018-05-29T20:13:09.343Z,99583
2018-05-29T20:15:37.432Z,99585
2018-05-29T20:18:05.502Z,99582
2018-05-29T20:20:34.307Z,99577
2018-05-29T20:23:02.393Z,99579
2018-05-29T20:25:31.196Z,99575
2018-05-29T20:27:59.247Z,99584
2018-05-29T20:30:27.373Z,99588
2018-05-29T20:32:55.426Z,99591
2018-05-29T20:35:24.255Z,99588
2018-05-29T20:37:52.303Z,99585
2018-05-29T20:40:20.347Z,99585
2018-05-29T20:42:48.400Z,99589
2018-05-29T20:45:16.446Z,99593
2018-05-29T20:47:44.491Z,99595
2018-05-29T20:50:12.534Z,99597
2018-05-29T20:52:40.652Z,99600
2018-05-29T20:55:08.694Z,99596
2018-05-29T20:57:36.740Z,99595
2018-05-29T21:00:04.790Z,99601
2018-05-29T21:02:33.603Z,99599
2018-05-29T21:05:01.653Z,99598
2018-05-29T21:07:29.703Z,99601
2018-05-29T21:09:57.748Z,99590
2018-05-29T21:12:25.844Z,99587
2018-05-29T21:14:53.915Z,99581
2018-05-29T21:17:22.732Z,99581
2018-05-29T21:19:50.780Z,99585
2018-05-29T21:22:18.970Z,99584
2018-05-29T21:24:46.955Z,99588
2018-05-29T21:27:15.000Z,99590
2018-05-29T21:29:43.053Z,99587
2018-05-29T21:32:11.143Z,99589
2018-05-29T21:34:39.195Z,99587
2018-05-29T21:37:08.012Z,99587
2018-05-29T21:39:36.831Z,99586
2018-05-29T21:42:04.919Z,99587
2018-05-29T21:44:32.966Z,99590
2018-05-29T21:47:01.775Z,99587
2018-05-29T21:49:30.622Z,99585
2018-05-29T21:51:58.672Z,99590
2018-05-29T21:54:27.488Z,99593
2018-05-29T21:56:55.534Z,99595
2018-05-29T21:59:23.584Z,99593
2018-05-29T22:01:51.631Z,99596
2018-05-29T22:04:19.686Z,99595
2018-05-29T22:06:47.732Z,99604
2018-05-29T22:09:15.784Z,99607
2018-05-29T22:11:43.830Z,99612
2018-05-29T22:14:11.880Z,99619
2018-05-29T22:16:39.928Z,99615
2018-05-29T22:19:08.856Z,99619
2018-05-29T22:21:36.890Z,99618
2018-05-29T22:24:04.942Z,99618
2018-05-29T22:26:32.986Z,99615
2018-05-29T22:29:01.796Z,99624
2018-05-29T22:31:29.834Z,99630
2018-05-29T22:33:57.887Z,99629
2018-05-29T22:36:25.923Z,99625
2018-05-29T22:38:53.968Z,99625
2018-05-29T22:41:22.032Z,99632
2018-05-29T22:43:50.116Z,99631
2018-05-29T22:46:18.169Z,99631
2018-05-29T22:48:46.283Z,99640
2018-05-29T22:51:14.334Z,99646
2018-05-29T22:53:42.381Z,99642
2018-05-29T22:56:10.548Z,99642
2018-05-29T22:58:38.591Z,99643
2018-05-29T23:01:06.647Z,99644
2018-05-29T23:03:34.683Z,99644
2018-05-29T23:06:02.733Z,99643
2018-05-29T23:08:30.772Z,99645
2018-05-29T23:10:58.818Z,99643
2018-05-29T23:13:27.627Z,99648
2018-05-29T23:15:56.443Z,99652
2018-05-29T23:18:24.549Z,99657
2018-05-29T23:20:52.541Z,99656
2018-05-29T23:23:20.585Z,99655
2018-05-29T23:25:49.395Z,99658
2018-05-29T23:28:17.452Z,99662
2018-05-29T23:30:45.496Z,99662
2018-05-29T23:33:13.535Z,99668
2018-05-29T23:35:42.350Z,99665
2018-05-29T23:38:10.394Z,99675
2018-05-29T23:40:38.440Z,99681
2018-05-29T23:43:06.501Z,99684
2018-05-29T23:45:35.307Z,99686
2018-05-29T23:48:03.344Z,99690
2018-05-29T23:50:31.398Z,99692
2018-05-29T23:52:59.451Z,99691
2018-05-29T23:55:28.267Z,99694
2018-05-29T23:57:56.314Z,99698
